createdAt,value
2022-11-20T00:00:17.241Z,-1.24
2022-11-20T00:02:43.720Z,-1.20
2022-11-20T00:05:10.400Z,-1.22
2022-11-20T00:07:37.007Z,-1.15
2022-11-20T00:10:03.673Z,-1.13
2022-11-20T00:12:30.145Z,-1.09
2022-11-20T00:14:56.794Z,-1.24
2022-11-20T00:17:23.382Z,-1.18
2022-11-20T00:19:50.251Z,-1.09
2022-11-20T00:22:16.803Z,-1.23
2022-11-20T00:24:43.408Z,-1.33
2022-11-20T00:27:09.935Z,-1.34
2022-11-20T00:29:36.431Z,-1.22
2022-11-20T00:32:02.930Z,-1.23
2022-11-20T00:34:29.627Z,-1.23
2022-11-20T00:36:56.157Z,-1.28
2022-11-20T00:39:22.882Z,-1.13
2022-11-20T00:41:49.666Z,-1.23
2022-11-20T00:44:16.077Z,-1.21
2022-11-20T00:46:42.779Z,-1.28
2022-11-20T00:49:09.357Z,-1.25
2022-11-20T00:51:35.909Z,-1.18
2022-11-20T00:54:03.289Z,-1.21
2022-11-20T00:56:30.049Z,-1.32
2022-11-20T00:58:57.104Z,-1.27
2022-11-20T01:01:25.782Z,-1.38
2022-11-20T01:03:53.685Z,-1.30
2022-11-20T01:06:21.589Z,-1.37
2022-11-20T01:08:49.114Z,-1.36
2022-11-20T01:11:17.582Z,-1.36
2022-11-20T01:13:46.014Z,-1.39
2022-11-20T01:16:14.365Z,-1.42
2022-11-20T01:18:42.121Z,-1.48
2022-11-20T01:21:10.001Z,-1.55
2022-11-20T01:23:37.802Z,-1.57
2022-11-20T01:26:05.537Z,-1.67
2022-11-20T01:28:32.665Z,-1.63
2022-11-20T01:30:59.472Z,-1.63
2022-11-20T01:33:26.878Z,-1.70
2022-11-20T01:35:54.092Z,-1.71
2022-11-20T01:38:23.679Z,-1.77
2022-11-20T01:40:56.762Z,-1.82
2022-11-20T01:43:23.612Z,-1.80
2022-11-20T01:45:56.198Z,-1.92
2022-11-20T01:48:23.872Z,-1.79
2022-11-20T01:50:50.943Z,-1.82
2022-11-20T01:53:18.995Z,-1.80
2022-11-20T01:55:49.148Z,-1.77
2022-11-20T01:58:16.809Z,-1.83
2022-11-20T02:00:43.876Z,-1.80
2022-11-20T02:03:13.320Z,-1.77
2022-11-20T02:05:44.660Z,-1.83
2022-11-20T02:08:11.123Z,-1.80
2022-11-20T02:10:37.651Z,-1.76
2022-11-20T02:13:22.853Z,-1.75
2022-11-20T02:15:49.858Z,-1.72
2022-11-20T02:18:18.597Z,-1.77
2022-11-20T02:20:46.599Z,-1.71
2022-11-20T02:23:34.547Z,-1.70
2022-11-20T02:26:03.248Z,-1.78
2022-11-20T02:28:30.155Z,-1.75
2022-11-20T02:30:56.594Z,-1.72
2022-11-20T02:33:23.266Z,-1.70
2022-11-20T02:35:49.834Z,-1.87
2022-11-20T02:38:16.719Z,-1.78
2022-11-20T02:40:43.437Z,-1.87
2022-11-20T02:43:10.541Z,-1.84
2022-11-20T02:45:37.298Z,-2.02
2022-11-20T02:48:04.012Z,-2.01
2022-11-20T02:50:30.593Z,-1.94
2022-11-20T02:52:57.231Z,-1.98
2022-11-20T02:55:23.774Z,-2.05
2022-11-20T02:57:50.485Z,-2.08
2022-11-20T03:00:17.235Z,-2.03
2022-11-20T03:02:43.838Z,-2.12
2022-11-20T03:05:10.337Z,-2.24
2022-11-20T03:07:36.904Z,-2.21
2022-11-20T03:10:04.192Z,-2.27
2022-11-20T03:12:30.815Z,-2.28
2022-11-20T03:14:57.427Z,-2.27
2022-11-20T03:17:24.121Z,-2.20
2022-11-20T03:19:50.756Z,-2.17
2022-11-20T03:22:17.424Z,-2.22
2022-11-20T03:24:44.166Z,-2.22
2022-11-20T03:27:11.032Z,-2.33
2022-11-20T03:29:37.557Z,-2.27
2022-11-20T03:32:04.129Z,-2.33
2022-11-20T03:34:30.622Z,-2.32
2022-11-20T03:36:57.169Z,-2.36
2022-11-20T03:39:24.076Z,-2.39
2022-11-20T03:41:50.858Z,-2.39
2022-11-20T03:44:17.576Z,-2.37
2022-11-20T03:46:44.212Z,-2.36
2022-11-20T03:49:10.848Z,-2.37
2022-11-20T03:51:37.617Z,-2.27
2022-11-20T03:54:06.112Z,-2.19
2022-11-20T03:56:34.051Z,-2.21
2022-11-20T03:59:00.640Z,-2.16
2022-11-20T04:01:28.542Z,-2.21
2022-11-20T04:03:56.395Z,-2.18
2022-11-20T04:06:27.105Z,-2.12
2022-11-20T04:08:55.403Z,-2.10
2022-11-20T04:11:28.287Z,-2.06
2022-11-20T04:13:56.493Z,-2.03
2022-11-20T04:16:23.686Z,-1.89
2022-11-20T04:18:57.463Z,-1.81
2022-11-20T04:21:24.266Z,-1.81
2022-11-20T04:23:51.435Z,-1.88
2022-11-20T04:26:18.202Z,-1.85
2022-11-20T04:28:44.643Z,-1.83
2022-11-20T04:31:12.733Z,-1.79
2022-11-20T04:33:39.626Z,-1.79
2022-11-20T04:36:11.939Z,-1.74
2022-11-20T04:38:38.899Z,-1.72
2022-11-20T04:41:06.442Z,-1.72
2022-11-20T04:43:33.711Z,-1.76
2022-11-20T04:46:01.152Z,-1.73
2022-11-20T04:48:28.438Z,-1.72
2022-11-20T04:50:55.019Z,-1.61
2022-11-20T04:53:22.135Z,-1.66
2022-11-20T04:55:48.761Z,-1.58
2022-11-20T04:58:15.730Z,-1.57
2022-11-20T05:00:42.446Z,-1.60
2022-11-20T05:03:09.011Z,-1.55
2022-11-20T05:05:36.051Z,-1.61
2022-11-20T05:08:02.544Z,-1.49
2022-11-20T05:10:29.447Z,-1.46
2022-11-20T05:12:55.936Z,-1.50
2022-11-20T05:15:22.705Z,-1.44
2022-11-20T05:17:50.145Z,-1.40
2022-11-20T05:20:16.858Z,-1.48
2022-11-20T05:22:44.031Z,-1.55
2022-11-20T05:25:10.829Z,-1.43
2022-11-20T05:27:37.455Z,-1.41
2022-11-20T05:30:04.937Z,-1.42
2022-11-20T05:32:31.614Z,-1.42
2022-11-20T05:34:58.212Z,-1.45
2022-11-20T05:37:24.770Z,-1.53
2022-11-20T05:39:51.365Z,-1.58
2022-11-20T05:42:32.780Z,-1.55
2022-11-20T05:45:00.573Z,-1.54
2022-11-20T05:47:27.914Z,-1.49
2022-11-20T05:49:54.458Z,-1.55
2022-11-20T05:52:21.167Z,-1.49
2022-11-20T05:54:47.624Z,-1.44
2022-11-20T05:57:14.091Z,-1.53
2022-11-20T05:59:40.831Z,-1.47
2022-11-20T06:02:07.469Z,-1.52
2022-11-20T06:04:33.988Z,-1.54
2022-11-20T06:07:00.705Z,-1.45
2022-11-20T06:09:27.802Z,-1.45
2022-11-20T06:11:54.371Z,-1.44
2022-11-20T06:14:20.844Z,-1.42
2022-11-20T06:16:47.524Z,-1.43
2022-11-20T06:19:14.180Z,-1.34
2022-11-20T06:21:40.830Z,-1.51
2022-11-20T06:24:07.928Z,-1.44
2022-11-20T06:26:34.446Z,-1.53
2022-11-20T06:29:00.889Z,-1.68
2022-11-20T06:31:27.611Z,-1.65
2022-11-20T06:33:54.297Z,-1.51
2022-11-20T06:36:21.828Z,-1.40
2022-11-20T06:38:48.655Z,-1.47
2022-11-20T06:41:17.412Z,-1.48
2022-11-20T06:43:44.391Z,-1.53
2022-11-20T06:46:12.378Z,-1.43
2022-11-20T06:48:38.891Z,-1.50
2022-11-20T06:51:06.292Z,-1.41
2022-11-20T06:53:33.134Z,-1.42
2022-11-20T06:55:59.980Z,-1.58
2022-11-20T06:58:30.137Z,-1.50
2022-11-20T07:01:04.000Z,-1.50
2022-11-20T07:03:31.066Z,-1.42
2022-11-20T07:05:58.184Z,-1.32
2022-11-20T07:08:25.559Z,-1.43
2022-11-20T07:10:52.281Z,-1.38
2022-11-20T07:13:18.926Z,-1.38
2022-11-20T07:15:45.593Z,-1.40
2022-11-20T07:18:12.480Z,-1.35
2022-11-20T07:20:39.047Z,-1.37
2022-11-20T07:23:05.751Z,-1.65
2022-11-20T07:25:32.500Z,-1.68
2022-11-20T07:27:59.628Z,-1.72
2022-11-20T07:30:26.484Z,-1.70
2022-11-20T07:32:53.231Z,-1.62
2022-11-20T07:35:20.426Z,-1.68
2022-11-20T07:37:48.264Z,-1.62
2022-11-20T07:40:14.842Z,-1.57
2022-11-20T07:42:48.544Z,-1.55
2022-11-20T07:45:15.329Z,-1.49
2022-11-20T07:47:41.909Z,-1.47
2022-11-20T07:50:08.669Z,-1.41
2022-11-20T07:52:35.300Z,-1.38
2022-11-20T07:55:01.836Z,-1.41
2022-11-20T07:57:28.676Z,-1.41
2022-11-20T07:59:55.283Z,-1.49
2022-11-20T08:02:22.033Z,-1.26
2022-11-20T08:04:48.595Z,-1.23
2022-11-20T08:07:15.151Z,-1.18
2022-11-20T08:09:41.656Z,-1.20
2022-11-20T08:12:27.085Z,-1.26
2022-11-20T08:14:53.832Z,-1.07
2022-11-20T08:17:20.473Z,-0.97
2022-11-20T08:19:47.003Z,-0.83
2022-11-20T08:22:13.600Z,-0.70
2022-11-20T08:24:40.177Z,-0.63
2022-11-20T08:27:07.081Z,-0.67
2022-11-20T08:29:33.586Z,-0.80
2022-11-20T08:32:00.265Z,-0.91
2022-11-20T08:34:26.781Z,-0.97
2022-11-20T08:36:53.474Z,-0.88
2022-11-20T08:39:20.299Z,-0.96
2022-11-20T08:41:47.280Z,-0.87
2022-11-20T08:44:13.827Z,-0.86
2022-11-20T08:46:42.146Z,-0.77
2022-11-20T08:49:10.418Z,-0.88
2022-11-20T08:51:37.293Z,-1.01
2022-11-20T08:54:04.351Z,-1.04
2022-11-20T08:56:31.226Z,-0.74
2022-11-20T09:01:44.466Z,-0.81
2022-11-20T09:04:11.044Z,-0.73
2022-11-20T09:06:37.734Z,-0.77
2022-11-20T09:09:06.779Z,-0.63
2022-11-20T09:11:34.093Z,-0.66
2022-11-20T09:14:01.218Z,-0.82
2022-11-20T09:16:27.759Z,-0.67
2022-11-20T09:19:13.541Z,-0.77
2022-11-20T09:21:40.860Z,-0.54
2022-11-20T09:24:07.617Z,-0.58
2022-11-20T09:26:34.147Z,-0.57
2022-11-20T09:29:00.790Z,-0.78
2022-11-20T09:31:27.351Z,-0.69
2022-11-20T09:33:54.465Z,-0.69
2022-11-20T09:36:21.253Z,-0.56
2022-11-20T09:38:48.420Z,-0.51
2022-11-20T09:41:33.526Z,-0.80
2022-11-20T09:44:08.912Z,-0.84
2022-11-20T09:46:47.619Z,-0.61
2022-11-20T09:49:33.257Z,-0.55
2022-11-20T09:52:01.333Z,-0.57
2022-11-20T09:54:38.694Z,-0.65
2022-11-20T09:57:12.764Z,-0.77
2022-11-20T09:59:43.829Z,-0.83
2022-11-20T10:02:25.469Z,-0.78
2022-11-20T10:05:14.247Z,-0.77
2022-11-20T10:07:56.472Z,-0.54
2022-11-20T10:10:30.287Z,-0.53
2022-11-20T10:12:56.964Z,-0.76
2022-11-20T10:15:32.528Z,-0.73
2022-11-20T10:18:12.492Z,-0.62
2022-11-20T10:20:49.740Z,-0.54
2022-11-20T10:23:30.306Z,-0.56
2022-11-20T10:26:23.235Z,-0.64
2022-11-20T10:29:19.165Z,-0.40
2022-11-20T10:31:47.227Z,-0.41
2022-11-20T10:34:25.175Z,-0.16
2022-11-20T10:37:04.700Z,-0.14
2022-11-20T10:39:36.547Z,-0.12
2022-11-20T10:42:03.184Z,-0.28
2022-11-20T10:44:52.332Z,-0.39
2022-11-20T10:47:22.673Z,-0.46
2022-11-20T10:49:52.288Z,-0.27
2022-11-20T10:52:18.742Z,-0.36
2022-11-20T10:55:08.359Z,-0.23
2022-11-20T10:57:47.276Z,-0.39
2022-11-20T11:00:14.868Z,-0.38
2022-11-20T11:02:51.388Z,-0.29
2022-11-20T11:05:22.797Z,-0.13
2022-11-20T11:07:55.265Z,-0.11
2022-11-20T11:10:42.439Z,-0.15
2022-11-20T11:13:09.062Z,0.18
2022-11-20T11:15:39.837Z,0.66
2022-11-20T11:18:09.818Z,1.04
2022-11-20T11:20:37.466Z,0.79
2022-11-20T11:23:05.524Z,0.88
2022-11-20T11:25:34.859Z,1.02
2022-11-20T11:28:06.067Z,0.99
2022-11-20T11:30:42.643Z,1.02
2022-11-20T11:33:22.724Z,1.17
2022-11-20T11:35:53.718Z,0.99
2022-11-20T11:38:29.063Z,0.77
2022-11-20T11:40:57.478Z,1.03
2022-11-20T11:43:48.505Z,1.03
2022-11-20T11:46:21.290Z,1.13
2022-11-20T11:49:14.674Z,1.25
2022-11-20T11:51:59.272Z,1.19
2022-11-20T11:54:41.427Z,1.23
2022-11-20T11:57:15.485Z,1.38
2022-11-20T12:00:00.464Z,1.51
2022-11-20T12:02:27.060Z,1.54
2022-11-20T12:05:12.057Z,1.42
2022-11-20T12:07:48.828Z,1.62
2022-11-20T12:10:17.962Z,1.59
2022-11-20T12:12:47.287Z,1.65
2022-11-20T12:15:17.069Z,1.63
2022-11-20T12:17:43.567Z,1.47
2022-11-20T12:20:14.925Z,1.54
2022-11-20T12:22:57.954Z,1.69
2022-11-20T12:25:24.485Z,1.54
2022-11-20T12:28:09.376Z,1.68
2022-11-20T12:30:41.738Z,1.50
2022-11-20T12:33:20.575Z,1.24
2022-11-20T12:35:54.068Z,1.09
2022-11-20T12:38:20.590Z,1.23
2022-11-20T12:41:02.364Z,1.32
2022-11-20T12:43:49.147Z,1.37
2022-11-20T12:46:18.611Z,1.30
2022-11-20T12:48:55.518Z,1.17
2022-11-20T12:51:32.371Z,0.93
2022-11-20T12:54:17.592Z,1.21
2022-11-20T12:56:51.136Z,1.14
2022-11-20T12:59:29.933Z,1.03
2022-11-20T13:02:02.588Z,1.03
2022-11-20T13:04:29.122Z,0.99
2022-11-20T13:06:56.149Z,0.95
2022-11-20T13:09:24.251Z,0.73
2022-11-20T13:11:50.825Z,0.63
2022-11-20T13:14:27.699Z,0.70
2022-11-20T13:17:06.363Z,0.67
2022-11-20T13:19:33.758Z,0.56
2022-11-20T13:22:00.501Z,0.60
2022-11-20T13:24:30.891Z,0.41
2022-11-20T13:27:20.206Z,0.27
2022-11-20T13:29:47.575Z,0.25
2022-11-20T13:32:17.082Z,0.28
2022-11-20T13:34:56.519Z,0.31
2022-11-20T13:37:36.873Z,0.28
2022-11-20T13:40:09.385Z,0.23
2022-11-20T13:42:56.119Z,0.18
2022-11-20T13:45:25.336Z,0.11
2022-11-20T13:47:53.132Z,0.10
2022-11-20T13:50:19.914Z,0.21
2022-11-20T13:52:46.450Z,0.11
2022-11-20T13:55:12.953Z,0.12
2022-11-20T13:57:56.231Z,0.05
2022-11-20T14:00:24.037Z,0.21
2022-11-20T14:02:59.582Z,0.23
2022-11-20T14:05:26.192Z,0.20
2022-11-20T14:07:53.122Z,0.26
2022-11-20T14:10:31.701Z,0.27
2022-11-20T14:12:59.505Z,0.25
2022-11-20T14:15:28.013Z,0.26
2022-11-20T14:17:54.840Z,0.29
2022-11-20T14:20:26.458Z,0.26
2022-11-20T14:22:53.729Z,0.29
2022-11-20T14:25:24.688Z,0.30
2022-11-20T14:27:58.574Z,0.22
2022-11-20T14:30:29.985Z,0.31
2022-11-20T14:32:58.440Z,0.29
2022-11-20T14:35:32.797Z,0.20
2022-11-20T14:37:59.446Z,0.21
2022-11-20T14:40:35.020Z,0.19
2022-11-20T14:43:01.751Z,0.16
2022-11-20T14:45:28.695Z,0.15
2022-11-20T14:47:57.323Z,0.22
2022-11-20T14:50:25.120Z,0.21
2022-11-20T14:52:52.875Z,0.27
2022-11-20T14:55:33.796Z,0.37
2022-11-20T14:58:01.737Z,0.32
2022-11-20T15:00:29.103Z,0.33
2022-11-20T15:02:56.024Z,0.36
2022-11-20T15:05:24.435Z,0.33
2022-11-20T15:08:06.524Z,0.36
2022-11-20T15:10:33.246Z,0.46
2022-11-20T15:13:11.282Z,0.37
2022-11-20T15:15:45.638Z,0.37
2022-11-20T15:18:13.778Z,0.35
2022-11-20T15:20:41.475Z,0.32
2022-11-20T15:23:12.674Z,0.27
2022-11-20T15:25:40.301Z,0.32
2022-11-20T15:28:13.624Z,0.21
2022-11-20T15:30:40.414Z,0.17
2022-11-20T15:33:09.303Z,0.28
2022-11-20T15:35:35.836Z,0.25
2022-11-20T15:38:02.349Z,0.31
2022-11-20T15:40:28.774Z,0.28
2022-11-20T15:43:09.738Z,0.21
2022-11-20T15:45:39.940Z,0.30
2022-11-20T15:48:09.966Z,0.36
2022-11-20T15:50:42.600Z,0.38
2022-11-20T15:53:10.502Z,0.35
2022-11-20T15:55:36.976Z,0.27
2022-11-20T15:58:03.549Z,0.34
2022-11-20T16:00:30.240Z,0.30
2022-11-20T16:02:56.701Z,0.20
2022-11-20T16:05:24.242Z,0.12
2022-11-20T16:07:52.045Z,-0.03
2022-11-20T16:10:18.754Z,-0.17
2022-11-20T16:13:03.857Z,-0.26
2022-11-20T16:15:49.198Z,-0.37
2022-11-20T16:18:17.555Z,-0.47
2022-11-20T16:20:44.435Z,-0.52
2022-11-20T16:23:11.132Z,-0.62
2022-11-20T16:25:38.036Z,-0.70
2022-11-20T16:28:04.866Z,-0.69
2022-11-20T16:30:32.524Z,-0.74
2022-11-20T16:32:59.405Z,-0.87
2022-11-20T16:35:29.360Z,-0.90
2022-11-20T16:37:58.976Z,-0.80
2022-11-20T16:40:25.965Z,-0.86
2022-11-20T16:42:52.568Z,-0.89
2022-11-20T16:45:25.381Z,-0.96
2022-11-20T16:47:53.505Z,-0.98
2022-11-20T16:50:19.925Z,-1.05
2022-11-20T16:52:46.410Z,-1.11
2022-11-20T16:55:13.104Z,-1.16
2022-11-20T16:57:40.814Z,-1.21
2022-11-20T17:00:07.594Z,-1.27
2022-11-20T17:02:34.061Z,-1.28
2022-11-20T17:05:00.574Z,-1.21
2022-11-20T17:07:27.073Z,-1.25
2022-11-20T17:09:53.600Z,-1.30
2022-11-20T17:12:20.074Z,-1.40
2022-11-20T17:14:46.732Z,-1.48
2022-11-20T17:17:13.243Z,-1.50
2022-11-20T17:19:39.714Z,-1.56
2022-11-20T17:22:06.142Z,-1.56
2022-11-20T17:24:33.065Z,-1.63
2022-11-20T17:26:59.727Z,-1.62
2022-11-20T17:29:26.177Z,-1.66
2022-11-20T17:31:54.179Z,-1.67
2022-11-20T17:34:20.676Z,-1.73
2022-11-20T17:36:47.393Z,-1.74
2022-11-20T17:39:43.235Z,-1.77
2022-11-20T17:42:29.415Z,-1.78
2022-11-20T17:44:58.708Z,-1.84
2022-11-20T17:47:25.267Z,-1.80
2022-11-20T17:49:51.723Z,-1.83
2022-11-20T17:52:18.185Z,-1.85
2022-11-20T17:54:44.606Z,-1.90
2022-11-20T17:57:29.773Z,-1.90
2022-11-20T17:59:56.207Z,-1.96
2022-11-20T18:02:22.629Z,-2.01
2022-11-20T18:04:50.185Z,-2.04
2022-11-20T18:07:16.665Z,-2.07
2022-11-20T18:09:43.184Z,-2.13
2022-11-20T18:12:09.712Z,-2.12
2022-11-20T18:14:36.632Z,-2.09
2022-11-20T18:17:04.998Z,-2.04
2022-11-20T18:19:33.197Z,-2.10
2022-11-20T18:22:01.688Z,-2.11
2022-11-20T18:24:28.519Z,-2.12
2022-11-20T18:26:55.270Z,-2.15
2022-11-20T18:29:22.241Z,-2.17
2022-11-20T18:31:49.215Z,-2.21
2022-11-20T18:34:15.906Z,-2.20
2022-11-20T18:36:42.786Z,-2.21
2022-11-20T18:39:10.285Z,-2.22
2022-11-20T18:41:55.817Z,-2.22
2022-11-20T18:44:41.769Z,-2.23
2022-11-20T18:47:14.147Z,-2.27
2022-11-20T18:49:42.431Z,-2.29
2022-11-20T18:52:09.049Z,-2.30
2022-11-20T18:54:37.238Z,-2.30
2022-11-20T18:57:04.295Z,-2.26
2022-11-20T18:59:31.275Z,-2.31
2022-11-20T19:01:58.343Z,-2.32
2022-11-20T19:04:25.277Z,-2.32
2022-11-20T19:06:56.101Z,-2.36
2022-11-20T19:09:24.023Z,-2.33
2022-11-20T19:11:51.207Z,-2.32
2022-11-20T19:14:17.915Z,-2.27
2022-11-20T19:16:44.491Z,-2.29
2022-11-20T19:19:11.049Z,-2.29
2022-11-20T19:21:38.090Z,-2.29
2022-11-20T19:24:05.289Z,-2.33
2022-11-20T19:26:32.081Z,-2.32
2022-11-20T19:28:58.876Z,-2.32
2022-11-20T19:31:28.858Z,-2.27
2022-11-20T19:33:59.070Z,-2.23
2022-11-20T19:36:27.167Z,-2.18
2022-11-20T19:38:54.603Z,-2.15
2022-11-20T19:41:31.665Z,-2.16
2022-11-20T19:44:02.180Z,-2.14
2022-11-20T19:46:29.504Z,-2.13
2022-11-20T19:48:56.373Z,-2.15
2022-11-20T19:51:26.962Z,-2.08
2022-11-20T19:53:55.183Z,-2.10
2022-11-20T19:56:22.734Z,-2.14
2022-11-20T19:58:49.215Z,-2.19
2022-11-20T20:01:19.955Z,-2.19
2022-11-20T20:03:47.412Z,-2.24
2022-11-20T20:06:21.603Z,-2.31
2022-11-20T20:08:53.796Z,-2.36
2022-11-20T20:11:21.778Z,-2.38
2022-11-20T20:13:48.244Z,-2.43
2022-11-20T20:16:16.605Z,-2.46
2022-11-20T20:18:43.159Z,-2.53
2022-11-20T20:21:10.671Z,-2.55
2022-11-20T20:23:37.382Z,-2.56
2022-11-20T20:26:05.822Z,-2.57
2022-11-20T20:28:32.647Z,-2.59
2022-11-20T20:31:05.895Z,-2.63
2022-11-20T20:33:32.349Z,-2.71
2022-11-20T20:35:59.186Z,-2.77
2022-11-20T20:38:25.726Z,-2.82
2022-11-20T20:40:52.409Z,-2.80
2022-11-20T20:43:18.868Z,-2.84
2022-11-20T20:45:49.497Z,-2.86
2022-11-20T20:48:17.009Z,-2.92
2022-11-20T20:50:52.719Z,-2.95
2022-11-20T20:53:19.377Z,-2.95
2022-11-20T20:55:53.716Z,-3.04
2022-11-20T20:58:20.159Z,-3.05
2022-11-20T21:00:46.601Z,-3.12
2022-11-20T21:03:13.052Z,-3.11
2022-11-20T21:05:39.489Z,-3.13
2022-11-20T21:08:24.511Z,-3.16
2022-11-20T21:10:52.404Z,-3.22
2022-11-20T21:13:19.222Z,-3.22
2022-11-20T21:15:49.590Z,-3.19
2022-11-20T21:18:17.169Z,-3.23
2022-11-20T21:21:02.688Z,-3.23
2022-11-20T21:23:29.345Z,-3.26
2022-11-20T21:25:55.866Z,-3.29
2022-11-20T21:28:22.380Z,-3.34
2022-11-20T21:30:48.880Z,-3.34
2022-11-20T21:33:15.340Z,-3.37
2022-11-20T21:35:41.885Z,-3.40
2022-11-20T21:38:08.376Z,-3.46
2022-11-20T21:40:34.817Z,-3.44
2022-11-20T21:43:01.364Z,-3.40
2022-11-20T21:45:27.783Z,-3.40
2022-11-20T21:47:54.896Z,-3.40
2022-11-20T21:50:22.288Z,-3.41
2022-11-20T21:52:48.735Z,-3.45
2022-11-20T21:55:15.247Z,-3.53
2022-11-20T21:57:41.727Z,-3.60
2022-11-20T22:00:12.143Z,-3.53
2022-11-20T22:02:40.557Z,-3.52
2022-11-20T22:05:07.675Z,-3.48
2022-11-20T22:07:34.183Z,-3.46
2022-11-20T22:10:00.677Z,-3.49
2022-11-20T22:12:27.160Z,-3.54
2022-11-20T22:14:53.634Z,-3.58
2022-11-20T22:17:40.059Z,-3.63
2022-11-20T22:20:06.887Z,-3.60
2022-11-20T22:22:33.320Z,-3.65
2022-11-20T22:24:59.784Z,-3.68
2022-11-20T22:27:26.225Z,-3.70
2022-11-20T22:29:52.649Z,-3.71
2022-11-20T22:32:19.189Z,-3.74
2022-11-20T22:34:45.723Z,-3.76
2022-11-20T22:37:12.690Z,-3.74
2022-11-20T22:39:39.429Z,-3.76
2022-11-20T22:42:06.127Z,-3.75
2022-11-20T22:44:32.639Z,-3.72
2022-11-20T22:46:59.290Z,-3.59
2022-11-20T22:49:25.718Z,-3.55
2022-11-20T22:51:52.655Z,-3.50
2022-11-20T22:54:19.279Z,-3.45
2022-11-20T22:56:46.267Z,-3.38
2022-11-20T22:59:13.101Z,-3.32
2022-11-20T23:01:39.821Z,-3.25
2022-11-20T23:04:09.285Z,-3.19
2022-11-20T23:06:35.893Z,-3.13
2022-11-20T23:09:03.556Z,-3.12
2022-11-20T23:11:33.005Z,-3.10
2022-11-20T23:14:00.894Z,-3.06
2022-11-20T23:16:28.657Z,-2.99
2022-11-20T23:18:56.232Z,-2.95
2022-11-20T23:21:23.227Z,-2.91
2022-11-20T23:23:50.786Z,-2.87
2022-11-20T23:26:18.120Z,-2.87
2022-11-20T23:28:45.078Z,-2.89
2022-11-20T23:31:12.588Z,-2.87
2022-11-20T23:33:40.209Z,-2.86
2022-11-20T23:36:07.158Z,-2.87
2022-11-20T23:38:33.988Z,-2.84
2022-11-20T23:41:00.443Z,-2.86
2022-11-20T23:43:27.298Z,-2.81
2022-11-20T23:45:54.954Z,-2.82
2022-11-20T23:48:23.092Z,-2.81
2022-11-20T23:50:50.116Z,-2.80
2022-11-20T23:53:17.740Z,-2.75
2022-11-20T23:55:45.182Z,-2.75
2022-11-20T23:58:11.637Z,-2.71
